createdAt,value
2023-03-03T00:00:27.939Z,7.07
2023-03-03T00:03:04.349Z,11.07
2023-03-03T00:05:37.488Z,4.93
2023-03-03T00:08:10.809Z,9.00
2023-03-03T00:10:44.410Z,9.13
2023-03-03T00:13:18.458Z,7.47
2023-03-03T00:15:51.735Z,12.23
2023-03-03T00:18:28.978Z,12.50
2023-03-03T00:21:02.889Z,8.68
2023-03-03T00:23:37.651Z,6.57
2023-03-03T00:26:20.362Z,5.90
2023-03-03T00:28:56.298Z,4.88
2023-03-03T00:31:33.176Z,4.57
2023-03-03T00:34:24.393Z,4.70
2023-03-03T00:36:58.797Z,7.38
2023-03-03T00:39:35.329Z,8.48
2023-03-03T00:42:13.211Z,5.50
2023-03-03T00:44:46.515Z,12.30
2023-03-03T00:47:25.991Z,7.43
2023-03-03T00:50:26.919Z,6.57
2023-03-03T00:53:05.948Z,6.45
2023-03-03T00:55:39.821Z,7.32
2023-03-03T00:58:13.235Z,5.90
2023-03-03T01:00:50.937Z,7.57
2023-03-03T01:03:26.667Z,10.93
2023-03-03T01:05:59.481Z,9.40
2023-03-03T01:08:31.998Z,5.25
2023-03-03T01:11:08.444Z,14.85
2023-03-03T01:13:42.940Z,8.35
2023-03-03T01:16:15.790Z,6.70
2023-03-03T01:18:48.353Z,5.93
2023-03-03T01:21:20.669Z,8.05
2023-03-03T01:23:53.011Z,9.88
2023-03-03T01:26:26.185Z,5.93
2023-03-03T01:28:58.519Z,6.25
2023-03-03T01:31:30.862Z,11.38
2023-03-03T01:34:03.196Z,5.97
2023-03-03T01:36:36.667Z,6.07
2023-03-03T01:39:10.696Z,7.80
2023-03-03T01:41:43.686Z,8.77
2023-03-03T01:44:16.116Z,7.43
2023-03-03T01:46:54.565Z,7.88
2023-03-03T01:49:31.325Z,6.88
2023-03-03T01:52:13.114Z,10.82
2023-03-03T01:54:50.377Z,5.93
2023-03-03T01:57:28.147Z,7.78
2023-03-03T02:00:02.634Z,5.88
2023-03-03T02:02:46.200Z,5.88
2023-03-03T02:05:18.866Z,9.32
2023-03-03T02:07:51.846Z,8.80
2023-03-03T02:10:24.322Z,7.07
2023-03-03T02:12:58.538Z,6.45
2023-03-03T02:15:32.588Z,10.23
2023-03-03T02:18:07.474Z,8.32
2023-03-03T02:20:52.139Z,6.78
2023-03-03T02:23:30.096Z,7.20
2023-03-03T02:26:08.692Z,7.90
2023-03-03T02:28:41.371Z,5.00
2023-03-03T02:31:18.538Z,6.25
2023-03-03T02:33:52.585Z,8.07
2023-03-03T02:36:27.718Z,8.60
2023-03-03T02:39:04.691Z,5.57
2023-03-03T02:41:43.494Z,5.05
2023-03-03T02:44:16.949Z,8.65
2023-03-03T02:46:51.896Z,8.82
2023-03-03T02:49:25.993Z,5.78
2023-03-03T02:51:58.892Z,7.70
2023-03-03T02:54:31.772Z,6.05
2023-03-03T02:57:06.573Z,6.88
2023-03-03T02:59:38.915Z,7.50
2023-03-03T03:02:15.749Z,14.15
2023-03-03T03:04:48.493Z,8.35
2023-03-03T03:07:25.761Z,6.72
2023-03-03T03:09:58.291Z,7.07
2023-03-03T03:12:33.748Z,5.05
2023-03-03T03:15:09.262Z,9.15
2023-03-03T03:17:41.609Z,8.35
2023-03-03T03:20:14.709Z,6.55
2023-03-03T03:22:47.419Z,5.35
2023-03-03T03:25:19.856Z,6.20
2023-03-03T03:27:53.485Z,4.88
2023-03-03T03:30:25.992Z,5.75
2023-03-03T03:32:58.298Z,6.07
2023-03-03T03:35:32.328Z,5.13
2023-03-03T03:38:04.774Z,4.32
2023-03-03T03:40:37.302Z,3.28
2023-03-03T03:43:11.282Z,4.03
2023-03-03T03:45:44.000Z,4.65
2023-03-03T03:48:18.896Z,3.95
2023-03-03T03:50:52.354Z,6.32
2023-03-03T03:53:25.868Z,5.65
2023-03-03T03:55:58.256Z,6.53
2023-03-03T03:58:31.411Z,3.95
2023-03-03T04:01:08.255Z,4.93
2023-03-03T04:03:46.072Z,5.90
2023-03-03T04:06:22.208Z,7.20
2023-03-03T04:08:56.087Z,5.03
2023-03-03T04:11:29.080Z,5.88
2023-03-03T04:14:02.058Z,5.10
2023-03-03T04:16:34.604Z,6.60
2023-03-03T04:19:07.128Z,7.00
2023-03-03T04:21:41.850Z,10.23
2023-03-03T04:24:14.598Z,6.63
2023-03-03T04:26:47.025Z,12.05
2023-03-03T04:29:20.228Z,6.53
2023-03-03T04:31:52.568Z,14.13
2023-03-03T04:34:26.974Z,10.30
2023-03-03T04:37:00.209Z,5.13
2023-03-03T04:39:32.761Z,6.38
2023-03-03T04:42:05.216Z,7.50
2023-03-03T04:44:38.718Z,7.38
2023-03-03T04:47:11.368Z,13.90
2023-03-03T04:49:43.683Z,10.02
2023-03-03T04:52:16.128Z,6.85
2023-03-03T04:54:48.519Z,9.52
2023-03-03T04:57:20.849Z,16.00
2023-03-03T04:59:54.748Z,14.05
2023-03-03T05:02:27.095Z,12.98
2023-03-03T05:04:59.467Z,15.15
2023-03-03T05:07:31.745Z,19.73
2023-03-03T05:10:04.612Z,9.63
2023-03-03T05:12:37.122Z,13.32
2023-03-03T05:15:10.988Z,19.05
2023-03-03T05:17:43.271Z,7.93
2023-03-03T05:20:15.762Z,7.68
2023-03-03T05:22:48.051Z,7.38
2023-03-03T05:25:21.177Z,19.33
2023-03-03T05:27:54.233Z,18.77
2023-03-03T05:30:27.249Z,6.07
2023-03-03T05:32:59.942Z,13.73
2023-03-03T05:35:33.497Z,21.45
2023-03-03T05:38:05.849Z,10.70
2023-03-03T05:40:38.410Z,24.60
2023-03-03T05:43:10.635Z,10.57
2023-03-03T05:45:43.665Z,23.20
2023-03-03T05:48:15.946Z,15.95
2023-03-03T05:50:48.333Z,6.00
2023-03-03T05:53:20.606Z,8.95
2023-03-03T05:55:53.025Z,9.60
2023-03-03T05:58:26.266Z,6.20
2023-03-03T06:00:59.279Z,6.00
2023-03-03T06:03:31.562Z,5.95
2023-03-03T06:06:04.245Z,9.45
2023-03-03T06:08:36.523Z,9.23
2023-03-03T06:11:08.860Z,7.82
2023-03-03T06:13:41.973Z,7.65
2023-03-03T06:16:14.898Z,5.35
2023-03-03T06:18:47.210Z,5.35
2023-03-03T06:21:19.462Z,9.02
2023-03-03T06:23:51.757Z,5.93
2023-03-03T06:26:24.127Z,11.98
2023-03-03T06:28:56.411Z,5.57
2023-03-03T06:31:29.409Z,8.65
2023-03-03T06:34:02.048Z,9.73
2023-03-03T06:36:34.375Z,5.25
2023-03-03T06:39:06.974Z,8.45
2023-03-03T06:41:39.247Z,6.95
2023-03-03T06:44:11.745Z,5.97
2023-03-03T06:46:44.732Z,9.35
2023-03-03T06:49:17.337Z,5.57
2023-03-03T06:51:50.574Z,5.07
2023-03-03T06:54:30.612Z,5.03
2023-03-03T06:57:14.913Z,8.15
2023-03-03T06:59:51.570Z,6.38
2023-03-03T07:02:24.580Z,8.68
2023-03-03T07:04:57.019Z,3.70
2023-03-03T07:07:29.796Z,8.13
2023-03-03T07:10:12.767Z,6.95
2023-03-03T07:12:45.041Z,7.22
2023-03-03T07:15:20.167Z,7.03
2023-03-03T07:17:57.526Z,7.00
2023-03-03T07:20:34.502Z,6.43
2023-03-03T07:23:20.752Z,8.98
2023-03-03T07:25:53.413Z,10.65
2023-03-03T07:28:28.002Z,11.27
2023-03-03T07:31:00.316Z,7.10
2023-03-03T07:33:37.602Z,9.82
2023-03-03T07:36:26.280Z,7.75
2023-03-03T07:39:00.939Z,10.30
2023-03-03T07:41:34.595Z,7.68
2023-03-03T07:44:18.076Z,6.15
2023-03-03T07:46:51.318Z,9.32
2023-03-03T07:49:33.662Z,6.68
2023-03-03T07:52:26.437Z,7.20
2023-03-03T07:55:01.673Z,7.38
2023-03-03T07:57:36.675Z,8.52
2023-03-03T08:01:00.231Z,6.88
2023-03-03T08:03:35.405Z,7.20
2023-03-03T08:06:51.634Z,7.10
2023-03-03T08:09:42.318Z,7.63
2023-03-03T08:12:31.436Z,6.35
2023-03-03T08:15:22.079Z,6.22
2023-03-03T08:17:56.186Z,8.30
2023-03-03T08:20:54.249Z,6.63
2023-03-03T08:23:27.540Z,8.88
2023-03-03T08:25:59.852Z,7.45
2023-03-03T08:28:32.793Z,7.30
2023-03-03T08:31:16.767Z,7.82
2023-03-03T08:33:54.768Z,11.45
2023-03-03T08:36:27.067Z,17.02
2023-03-03T08:39:00.036Z,15.82
2023-03-03T08:41:32.873Z,9.90
2023-03-03T08:44:05.163Z,8.90
2023-03-03T08:46:38.185Z,11.07
2023-03-03T08:49:10.581Z,13.13
2023-03-03T08:51:42.949Z,5.90
2023-03-03T08:54:15.933Z,6.82
2023-03-03T08:56:48.366Z,19.88
2023-03-03T08:59:21.540Z,11.27
2023-03-03T09:01:54.413Z,9.40
2023-03-03T09:04:26.826Z,6.60
2023-03-03T09:06:59.099Z,7.65
2023-03-03T09:09:32.066Z,7.28
2023-03-03T09:12:14.971Z,12.80
2023-03-03T09:14:47.582Z,10.60
2023-03-03T09:17:25.784Z,12.48
2023-03-03T09:20:02.641Z,7.78
2023-03-03T09:22:37.792Z,7.85
2023-03-03T09:25:22.613Z,6.57
2023-03-03T09:27:55.247Z,15.73
2023-03-03T09:30:38.688Z,8.27
2023-03-03T09:33:32.649Z,10.20
2023-03-03T09:36:20.674Z,7.68
2023-03-03T09:38:53.905Z,13.10
2023-03-03T09:41:48.307Z,14.48
2023-03-03T09:44:52.038Z,9.85
2023-03-03T09:47:52.176Z,12.60
2023-03-03T09:50:32.353Z,15.65
2023-03-03T09:53:19.526Z,23.75
2023-03-03T09:55:58.265Z,25.75
2023-03-03T09:58:53.448Z,21.25
2023-03-03T10:01:48.776Z,16.75
2023-03-03T10:04:53.939Z,13.15
2023-03-03T10:07:39.436Z,11.10
2023-03-03T10:10:35.939Z,18.10
2023-03-03T10:13:23.172Z,10.45
2023-03-03T10:16:12.456Z,10.95
2023-03-03T10:18:52.358Z,16.42
2023-03-03T10:24:13.279Z,8.63
2023-03-03T10:27:12.361Z,8.52
2023-03-03T10:29:58.590Z,11.63
2023-03-03T10:32:44.856Z,9.23
2023-03-03T10:35:34.950Z,9.05
2023-03-03T10:38:32.163Z,12.50
2023-03-03T10:41:19.883Z,13.10
2023-03-03T10:44:09.095Z,10.05
2023-03-03T10:47:03.726Z,14.73
2023-03-03T10:49:51.916Z,9.57
2023-03-03T10:52:36.491Z,10.00
2023-03-03T10:55:22.446Z,11.35
2023-03-03T10:58:06.831Z,9.05
2023-03-03T11:00:45.179Z,9.25
2023-03-03T11:03:46.856Z,12.13
2023-03-03T11:06:25.038Z,8.05
2023-03-03T11:09:04.939Z,11.40
2023-03-03T11:11:43.199Z,6.63
2023-03-03T11:14:23.810Z,10.35
2023-03-03T11:17:05.374Z,8.93
2023-03-03T11:19:53.558Z,10.80
2023-03-03T11:22:38.441Z,12.65
2023-03-03T11:25:23.672Z,12.50
2023-03-03T11:28:28.789Z,15.77
2023-03-03T11:31:12.693Z,12.38
2023-03-03T11:33:53.565Z,12.20
2023-03-03T11:36:30.071Z,10.48
2023-03-03T11:39:07.408Z,9.13
2023-03-03T11:41:45.586Z,7.75
2023-03-03T11:44:22.186Z,10.60
2023-03-03T11:47:00.412Z,10.60
2023-03-03T11:49:38.226Z,8.63
2023-03-03T11:52:23.577Z,8.60
2023-03-03T11:55:02.647Z,8.27
2023-03-03T11:57:41.675Z,14.05
2023-03-03T12:00:25.317Z,6.70
2023-03-03T12:03:19.327Z,10.38
2023-03-03T12:06:12.998Z,10.48
2023-03-03T12:09:09.952Z,5.82
2023-03-03T12:11:48.167Z,8.45
2023-03-03T12:14:34.205Z,5.22
2023-03-03T12:17:15.066Z,8.25
2023-03-03T12:19:57.687Z,13.23
2023-03-03T12:22:40.230Z,16.35
2023-03-03T12:25:22.673Z,10.40
2023-03-03T12:28:04.906Z,11.07
2023-03-03T12:31:16.954Z,9.85
2023-03-03T12:33:57.141Z,6.78
2023-03-03T12:39:34.172Z,6.07
2023-03-03T12:42:15.023Z,5.80
2023-03-03T12:45:00.443Z,10.07
2023-03-03T12:47:37.834Z,9.20
2023-03-03T12:50:25.804Z,9.07
2023-03-03T12:53:10.447Z,7.53
2023-03-03T12:55:51.209Z,9.00
2023-03-03T12:58:40.357Z,7.05
2023-03-03T13:01:27.847Z,12.75
2023-03-03T13:04:08.487Z,15.23
2023-03-03T13:06:46.781Z,7.35
2023-03-03T13:09:30.421Z,15.70
2023-03-03T13:12:28.273Z,14.88
2023-03-03T13:15:09.921Z,10.63
2023-03-03T13:17:53.319Z,10.45
2023-03-03T13:20:39.464Z,15.43
2023-03-03T13:23:21.890Z,9.65
2023-03-03T13:25:59.854Z,12.93
2023-03-03T13:28:36.571Z,7.38
2023-03-03T13:31:15.333Z,14.68
2023-03-03T13:33:54.506Z,7.80
2023-03-03T13:36:34.505Z,13.93
2023-03-03T13:41:56.299Z,14.80
2023-03-03T13:44:34.339Z,22.48
2023-03-03T13:47:18.332Z,14.60
2023-03-03T13:50:17.605Z,11.00
2023-03-03T13:53:06.720Z,10.45
2023-03-03T13:55:43.452Z,9.35
2023-03-03T13:58:25.096Z,7.00
2023-03-03T14:01:03.825Z,7.82
2023-03-03T14:04:01.616Z,5.55
2023-03-03T14:06:35.467Z,5.03
2023-03-03T14:09:35.689Z,6.88
2023-03-03T14:12:18.567Z,5.07
2023-03-03T14:14:59.118Z,5.97
2023-03-03T14:17:38.080Z,5.50
2023-03-03T14:20:22.252Z,4.57
2023-03-03T14:22:59.307Z,5.25
2023-03-03T14:25:57.870Z,6.47
2023-03-03T14:28:38.763Z,6.93
2023-03-03T14:31:21.923Z,10.43
2023-03-03T14:34:00.861Z,6.32
2023-03-03T14:36:38.439Z,10.30
2023-03-03T14:39:30.659Z,10.68
2023-03-03T14:42:12.285Z,11.25
2023-03-03T14:44:54.716Z,9.05
2023-03-03T14:47:28.105Z,9.95
2023-03-03T14:50:02.254Z,31.20
2023-03-03T14:52:35.140Z,11.10
2023-03-03T14:55:33.270Z,21.35
2023-03-03T14:58:23.691Z,10.20
2023-03-03T15:01:15.057Z,12.73
2023-03-03T15:03:51.808Z,10.90
2023-03-03T15:06:30.989Z,6.90
2023-03-03T15:09:24.314Z,17.35
2023-03-03T15:11:58.823Z,20.80
2023-03-03T15:14:37.576Z,12.65
2023-03-03T15:17:33.234Z,19.55
2023-03-03T15:20:31.551Z,10.93
2023-03-03T15:23:16.642Z,12.93
2023-03-03T15:25:58.711Z,11.52
2023-03-03T15:28:40.969Z,8.20
2023-03-03T15:31:23.849Z,8.48
2023-03-03T15:34:03.595Z,14.02
2023-03-03T15:36:44.896Z,7.03
2023-03-03T15:39:27.649Z,11.35
2023-03-03T15:42:05.344Z,8.82
2023-03-03T15:44:51.021Z,8.20
2023-03-03T15:47:37.869Z,9.10
2023-03-03T15:50:39.433Z,10.80
2023-03-03T15:53:33.482Z,8.90
2023-03-03T15:56:20.313Z,13.02
2023-03-03T15:59:20.943Z,10.50
2023-03-03T16:02:03.505Z,13.57
2023-03-03T16:04:40.340Z,12.93
2023-03-03T16:07:25.069Z,15.50
2023-03-03T16:10:11.346Z,20.92
2023-03-03T16:12:54.097Z,25.48
2023-03-03T16:15:42.587Z,27.15
2023-03-03T16:18:25.996Z,23.75
2023-03-03T16:21:10.956Z,23.90
2023-03-03T16:23:47.446Z,26.50
2023-03-03T16:26:34.340Z,24.27
2023-03-03T16:29:28.083Z,30.40
2023-03-03T16:32:06.658Z,38.17
2023-03-03T16:34:53.966Z,39.25
2023-03-03T16:37:31.128Z,30.17
2023-03-03T16:40:11.573Z,21.63
2023-03-03T16:42:44.667Z,20.02
2023-03-03T16:45:21.903Z,24.13
2023-03-03T16:48:12.917Z,29.67
2023-03-03T16:50:58.524Z,40.17
2023-03-03T16:53:53.857Z,34.92
2023-03-03T16:56:33.764Z,48.35
2023-03-03T16:59:28.535Z,52.15
2023-03-03T17:02:18.061Z,62.53
2023-03-03T17:04:58.362Z,43.20
2023-03-03T17:07:42.818Z,37.83
2023-03-03T17:10:27.590Z,32.50
2023-03-03T17:13:25.598Z,28.98
2023-03-03T17:16:11.001Z,24.13
2023-03-03T17:18:56.112Z,22.88
2023-03-03T17:21:41.000Z,31.98
2023-03-03T17:24:20.866Z,30.50
2023-03-03T17:27:08.124Z,30.40
2023-03-03T17:29:49.178Z,29.95
2023-03-03T17:32:43.433Z,30.15
2023-03-03T17:35:43.039Z,33.55
2023-03-03T17:38:24.202Z,31.83
2023-03-03T17:41:06.110Z,69.70
2023-03-03T17:43:48.097Z,56.83
2023-03-03T17:46:28.664Z,73.85
2023-03-03T17:49:35.076Z,51.15
2023-03-03T17:52:42.326Z,43.70
2023-03-03T17:55:36.537Z,27.98
2023-03-03T17:58:34.213Z,29.52
2023-03-03T18:01:18.537Z,26.27
2023-03-03T18:04:28.602Z,18.90
2023-03-03T18:07:27.230Z,22.67
2023-03-03T18:10:22.268Z,27.58
2023-03-03T18:13:06.119Z,35.85
2023-03-03T18:16:11.214Z,34.03
2023-03-03T18:19:02.526Z,38.83
2023-03-03T18:21:42.811Z,39.28
2023-03-03T18:24:33.033Z,25.95
2023-03-03T18:27:33.002Z,22.98
2023-03-03T18:30:26.938Z,21.95
2023-03-03T18:33:06.952Z,22.73
2023-03-03T18:35:42.704Z,29.20
2023-03-03T18:38:34.572Z,42.35
2023-03-03T18:41:11.324Z,33.25
2023-03-03T18:43:54.006Z,28.58
2023-03-03T18:46:48.795Z,39.47
2023-03-03T18:49:56.198Z,44.05
2023-03-03T18:52:30.476Z,31.67
2023-03-03T18:55:22.652Z,31.65
2023-03-03T18:58:28.498Z,32.08
2023-03-03T19:01:32.811Z,32.15
2023-03-03T19:04:21.480Z,27.48
2023-03-03T19:07:26.288Z,26.02
2023-03-03T19:10:02.981Z,22.08
2023-03-03T19:12:57.078Z,25.52
2023-03-03T19:15:48.531Z,30.90
2023-03-03T19:18:23.031Z,29.17
2023-03-03T19:20:58.143Z,28.15
2023-03-03T19:23:51.851Z,32.72
2023-03-03T19:26:53.756Z,35.05
2023-03-03T19:29:53.204Z,51.55
2023-03-03T19:32:40.121Z,41.72
2023-03-03T19:35:30.435Z,38.58
2023-03-03T19:38:15.649Z,34.58
2023-03-03T19:40:53.947Z,34.03
2023-03-03T19:43:39.751Z,29.50
2023-03-03T19:46:35.604Z,28.73
2023-03-03T19:49:16.284Z,24.98
2023-03-03T19:52:00.172Z,31.02
2023-03-03T19:54:50.999Z,33.60
2023-03-03T19:57:42.351Z,30.27
2023-03-03T20:00:23.829Z,34.38
2023-03-03T20:03:20.833Z,24.52
2023-03-03T20:06:10.097Z,32.17
2023-03-03T20:08:51.866Z,25.00
2023-03-03T20:11:45.513Z,24.88
2023-03-03T20:14:35.609Z,27.33
2023-03-03T20:17:47.650Z,33.80
2023-03-03T20:20:45.031Z,27.35
2023-03-03T20:23:22.999Z,29.42
2023-03-03T20:26:02.849Z,30.00
2023-03-03T20:29:05.981Z,39.05
2023-03-03T20:31:44.983Z,36.60
2023-03-03T20:34:27.529Z,39.63
2023-03-03T20:37:06.531Z,47.88
2023-03-03T20:39:49.585Z,26.10
2023-03-03T20:42:34.990Z,35.80
2023-03-03T20:45:24.650Z,30.05
2023-03-03T20:48:12.107Z,27.50
2023-03-03T20:50:53.945Z,31.35
2023-03-03T20:53:36.366Z,41.58
2023-03-03T20:56:15.324Z,51.25
2023-03-03T20:59:01.939Z,48.77
2023-03-03T21:01:38.750Z,50.47
2023-03-03T21:04:22.174Z,46.85
2023-03-03T21:06:55.022Z,43.63
2023-03-03T21:09:29.854Z,45.45
2023-03-03T21:12:10.386Z,56.88
2023-03-03T21:14:42.706Z,57.08
2023-03-03T21:17:25.506Z,46.50
2023-03-03T21:20:18.445Z,56.50
2023-03-03T21:22:51.628Z,42.25
2023-03-03T21:25:42.718Z,42.10
2023-03-03T21:28:17.586Z,36.45
2023-03-03T21:31:11.082Z,34.05
2023-03-03T21:33:50.704Z,35.35
2023-03-03T21:36:25.002Z,36.47
2023-03-03T21:38:57.644Z,37.58
2023-03-03T21:41:50.557Z,31.15
2023-03-03T21:44:30.847Z,33.60
2023-03-03T21:47:04.444Z,34.45
2023-03-03T21:49:40.846Z,27.17
2023-03-03T21:52:16.097Z,26.63
2023-03-03T21:54:50.615Z,42.55
2023-03-03T21:57:24.304Z,30.70
2023-03-03T21:59:56.739Z,20.83
2023-03-03T22:02:29.075Z,24.40
2023-03-03T22:05:02.795Z,29.65
2023-03-03T22:07:36.096Z,31.52
2023-03-03T22:10:09.759Z,26.20
2023-03-03T22:12:42.034Z,29.45
2023-03-03T22:15:14.708Z,41.33
2023-03-03T22:17:47.020Z,35.70
2023-03-03T22:20:19.782Z,36.08
2023-03-03T22:22:52.732Z,44.17
2023-03-03T22:25:25.060Z,47.67
2023-03-03T22:27:57.373Z,33.33
2023-03-03T22:30:29.665Z,27.60
2023-03-03T22:33:02.034Z,36.25
2023-03-03T22:35:34.406Z,21.55
2023-03-03T22:38:07.593Z,25.13
2023-03-03T22:40:39.890Z,26.35
2023-03-03T22:43:13.850Z,22.50
2023-03-03T22:45:46.134Z,24.92
2023-03-03T22:48:18.992Z,22.10
2023-03-03T22:50:51.859Z,24.05
2023-03-03T22:53:25.858Z,24.58
2023-03-03T22:55:58.238Z,20.40
2023-03-03T22:58:30.559Z,23.30
2023-03-03T23:01:04.091Z,23.92
2023-03-03T23:03:36.600Z,23.40
2023-03-03T23:06:08.924Z,25.15
2023-03-03T23:08:41.934Z,27.23
2023-03-03T23:11:14.223Z,30.40
2023-03-03T23:13:46.554Z,27.23
2023-03-03T23:16:18.974Z,29.25
2023-03-03T23:18:51.408Z,25.50
2023-03-03T23:21:23.805Z,33.10
2023-03-03T23:23:56.862Z,33.00
2023-03-03T23:26:29.113Z,34.28
2023-03-03T23:29:01.577Z,24.55
2023-03-03T23:31:33.973Z,32.97
2023-03-03T23:34:06.414Z,25.40
2023-03-03T23:36:38.810Z,26.75
2023-03-03T23:39:11.920Z,28.80
2023-03-03T23:41:44.442Z,22.15
2023-03-03T23:44:16.878Z,22.77
2023-03-03T23:46:49.182Z,24.25
2023-03-03T23:49:21.739Z,23.40
2023-03-03T23:51:54.210Z,22.70
2023-03-03T23:54:27.408Z,18.67
2023-03-03T23:56:59.866Z,23.85
2023-03-03T23:59:32.325Z,18.67
